sensor_id;sensor_type;location;lat;lon;timestamp;temperature;humidity
25248;DHT22;13191;47.472;11.214;2023-01-15T00:01:33;2.60;99.90
25248;DHT22;13191;47.472;11.214;2023-01-15T00:03:59;2.70;99.90
25248;DHT22;13191;47.472;11.214;2023-01-15T00:06:25;2.80;99.90
25248;DHT22;13191;47.472;11.214;2023-01-15T00:08:53;2.80;99.90
25248;DHT22;13191;47.472;11.214;2023-01-15T00:11:18;2.80;99.90
25248;DHT22;13191;47.472;11.214;2023-01-15T00:13:44;2.80;99.90
25248;DHT22;13191;47.472;11.214;2023-01-15T00:16:10;2.80;99.90
25248;DHT22;13191;47.472;11.214;2023-01-15T00:18:36;2.80;99.90
25248;DHT22;13191;47.472;11.214;2023-01-15T00:21:02;2.70;99.90
25248;DHT22;13191;47.472;11.214;2023-01-15T00:23:28;2.70;99.90
25248;DHT22;13191;47.472;11.214;2023-01-15T00:26:13;2.70;99.90
25248;DHT22;13191;47.472;11.214;2023-01-15T00:28:58;2.60;99.90
25248;DHT22;13191;47.472;11.214;2023-01-15T00:31:23;2.60;99.90
25248;DHT22;13191;47.472;11.214;2023-01-15T00:33:49;2.60;99.90
25248;DHT22;13191;47.472;11.214;2023-01-15T00:36:14;2.60;99.90
25248;DHT22;13191;47.472;11.214;2023-01-15T00:38:40;2.70;99.90
25248;DHT22;13191;47.472;11.214;2023-01-15T00:41:05;2.70;99.90
25248;DHT22;13191;47.472;11.214;2023-01-15T00:43:31;2.70;99.90
25248;DHT22;13191;47.472;11.214;2023-01-15T00:45:56;2.70;99.90
25248;DHT22;13191;47.472;11.214;2023-01-15T00:48:21;2.60;99.90
25248;DHT22;13191;47.472;11.214;2023-01-15T00:50:47;2.70;99.90
25248;DHT22;13191;47.472;11.214;2023-01-15T00:53:12;2.80;99.90
25248;DHT22;13191;47.472;11.214;2023-01-15T00:55:39;2.70;99.90
25248;DHT22;13191;47.472;11.214;2023-01-15T00:58:05;2.80;99.90
25248;DHT22;13191;47.472;11.214;2023-01-15T01:00:30;2.80;99.90
25248;DHT22;13191;47.472;11.214;2023-01-15T01:02:55;2.80;99.90
25248;DHT22;13191;47.472;11.214;2023-01-15T01:05:21;2.80;99.90
25248;DHT22;13191;47.472;11.214;2023-01-15T01:07:47;2.80;99.90
25248;DHT22;13191;47.472;11.214;2023-01-15T01:10:12;2.80;99.90
25248;DHT22;13191;47.472;11.214;2023-01-15T01:12:37;2.80;99.90
25248;DHT22;13191;47.472;11.214;2023-01-15T01:15:03;2.80;99.90
25248;DHT22;13191;47.472;11.214;2023-01-15T01:17:29;2.80;99.90
25248;DHT22;13191;47.472;11.214;2023-01-15T01:19:54;2.80;99.90
25248;DHT22;13191;47.472;11.214;2023-01-15T01:22:19;3.00;99.90
25248;DHT22;13191;47.472;11.214;2023-01-15T01:24:45;3.10;99.90
25248;DHT22;13191;47.472;11.214;2023-01-15T01:27:10;3.20;99.90
25248;DHT22;13191;47.472;11.214;2023-01-15T01:29:36;3.50;99.90
25248;DHT22;13191;47.472;11.214;2023-01-15T01:32:01;3.90;99.90
25248;DHT22;13191;47.472;11.214;2023-01-15T01:34:27;4.20;99.90
25248;DHT22;13191;47.472;11.214;2023-01-15T01:36:52;4.60;99.90
25248;DHT22;13191;47.472;11.214;2023-01-15T01:39:18;5.00;99.90
25248;DHT22;13191;47.472;11.214;2023-01-15T01:41:44;5.30;99.90
25248;DHT22;13191;47.472;11.214;2023-01-15T01:46:54;5.60;99.90
25248;DHT22;13191;47.472;11.214;2023-01-15T01:49:19;5.60;99.90
25248;DHT22;13191;47.472;11.214;2023-01-15T01:51:47;5.30;99.90
25248;DHT22;13191;47.472;11.214;2023-01-15T01:54:14;5.40;99.90
25248;DHT22;13191;47.472;11.214;2023-01-15T01:56:40;5.50;99.90
25248;DHT22;13191;47.472;11.214;2023-01-15T01:59:06;5.50;99.90
25248;DHT22;13191;47.472;11.214;2023-01-15T02:01:32;5.60;99.90
25248;DHT22;13191;47.472;11.214;2023-01-15T02:03:57;5.60;99.90
25248;DHT22;13191;47.472;11.214;2023-01-15T02:06:23;5.70;99.90
25248;DHT22;13191;47.472;11.214;2023-01-15T02:08:49;5.70;99.90
25248;DHT22;13191;47.472;11.214;2023-01-15T02:11:16;5.70;99.90
25248;DHT22;13191;47.472;11.214;2023-01-15T02:18:47;5.80;99.90
25248;DHT22;13191;47.472;11.214;2023-01-15T02:23:49;5.70;99.90
25248;DHT22;13191;47.472;11.214;2023-01-15T02:29:01;5.40;99.90
25248;DHT22;13191;47.472;11.214;2023-01-15T02:31:33;5.00;99.90
25248;DHT22;13191;47.472;11.214;2023-01-15T02:34:02;4.90;99.90
25248;DHT22;13191;47.472;11.214;2023-01-15T02:36:30;4.90;99.90
25248;DHT22;13191;47.472;11.214;2023-01-15T02:38:57;4.90;99.90
25248;DHT22;13191;47.472;11.214;2023-01-15T02:41:24;4.70;99.90
25248;DHT22;13191;47.472;11.214;2023-01-15T02:43:51;4.60;99.90
25248;DHT22;13191;47.472;11.214;2023-01-15T02:46:18;4.50;99.90
25248;DHT22;13191;47.472;11.214;2023-01-15T02:48:46;4.50;99.90
25248;DHT22;13191;47.472;11.214;2023-01-15T02:51:15;4.30;99.90
25248;DHT22;13191;47.472;11.214;2023-01-15T02:53:43;4.10;99.90
25248;DHT22;13191;47.472;11.214;2023-01-15T02:56:17;4.00;99.90
25248;DHT22;13191;47.472;11.214;2023-01-15T02:58:43;3.80;99.90
25248;DHT22;13191;47.472;11.214;2023-01-15T03:01:10;3.80;99.90
25248;DHT22;13191;47.472;11.214;2023-01-15T03:03:49;3.80;99.90
25248;DHT22;13191;47.472;11.214;2023-01-15T03:08:44;3.80;99.90
25248;DHT22;13191;47.472;11.214;2023-01-15T03:11:11;3.80;99.90
25248;DHT22;13191;47.472;11.214;2023-01-15T03:13:45;3.90;99.90
25248;DHT22;13191;47.472;11.214;2023-01-15T03:16:29;3.90;99.90
25248;DHT22;13191;47.472;11.214;2023-01-15T03:24:07;3.80;99.90
25248;DHT22;13191;47.472;11.214;2023-01-15T03:26:34;3.80;99.90
25248;DHT22;13191;47.472;11.214;2023-01-15T03:28:59;3.90;99.90
25248;DHT22;13191;47.472;11.214;2023-01-15T03:31:27;3.90;99.90
25248;DHT22;13191;47.472;11.214;2023-01-15T03:33:52;3.70;99.90
25248;DHT22;13191;47.472;11.214;2023-01-15T03:36:18;3.70;99.90
25248;DHT22;13191;47.472;11.214;2023-01-15T03:38:43;3.60;99.90
25248;DHT22;13191;47.472;11.214;2023-01-15T03:41:17;3.70;99.90
25248;DHT22;13191;47.472;11.214;2023-01-15T03:46:37;3.70;99.90
25248;DHT22;13191;47.472;11.214;2023-01-15T03:52:11;3.50;99.90
25248;DHT22;13191;47.472;11.214;2023-01-15T03:54:41;3.30;99.90
25248;DHT22;13191;47.472;11.214;2023-01-15T03:57:21;3.30;99.90
25248;DHT22;13191;47.472;11.214;2023-01-15T03:59:50;3.30;99.90
25248;DHT22;13191;47.472;11.214;2023-01-15T04:02:17;3.20;99.90
25248;DHT22;13191;47.472;11.214;2023-01-15T04:04:43;3.10;99.90
25248;DHT22;13191;47.472;11.214;2023-01-15T04:07:10;3.10;99.90
25248;DHT22;13191;47.472;11.214;2023-01-15T04:09:37;3.20;99.90
25248;DHT22;13191;47.472;11.214;2023-01-15T04:12:03;3.20;99.90
25248;DHT22;13191;47.472;11.214;2023-01-15T04:14:29;3.10;99.90
25248;DHT22;13191;47.472;11.214;2023-01-15T04:16:55;3.20;99.90
25248;DHT22;13191;47.472;11.214;2023-01-15T04:19:20;3.20;99.90
25248;DHT22;13191;47.472;11.214;2023-01-15T04:21:46;3.20;99.90
25248;DHT22;13191;47.472;11.214;2023-01-15T04:24:11;3.20;99.90
25248;DHT22;13191;47.472;11.214;2023-01-15T04:26:37;3.20;99.90
25248;DHT22;13191;47.472;11.214;2023-01-15T04:29:02;3.10;99.90
25248;DHT22;13191;47.472;11.214;2023-01-15T04:31:28;3.10;99.90
25248;DHT22;13191;47.472;11.214;2023-01-15T04:33:56;3.10;99.90
25248;DHT22;13191;47.472;11.214;2023-01-15T04:36:22;3.20;99.90
25248;DHT22;13191;47.472;11.214;2023-01-15T04:38:47;3.10;99.90
25248;DHT22;13191;47.472;11.214;2023-01-15T04:41:13;3.00;99.90
25248;DHT22;13191;47.472;11.214;2023-01-15T04:43:57;3.00;99.90
25248;DHT22;13191;47.472;11.214;2023-01-15T04:46:42;2.90;99.90
25248;DHT22;13191;47.472;11.214;2023-01-15T04:49:09;3.00;99.90
25248;DHT22;13191;47.472;11.214;2023-01-15T04:51:35;3.00;99.90
25248;DHT22;13191;47.472;11.214;2023-01-15T04:54:01;3.10;99.90
25248;DHT22;13191;47.472;11.214;2023-01-15T04:56:26;3.00;99.90
25248;DHT22;13191;47.472;11.214;2023-01-15T04:58:52;3.00;99.90
25248;DHT22;13191;47.472;11.214;2023-01-15T05:01:17;3.10;99.90
25248;DHT22;13191;47.472;11.214;2023-01-15T05:03:43;3.10;99.90
25248;DHT22;13191;47.472;11.214;2023-01-15T05:06:09;3.20;99.90
25248;DHT22;13191;47.472;11.214;2023-01-15T05:08:35;3.30;99.90
25248;DHT22;13191;47.472;11.214;2023-01-15T05:11:04;3.20;99.90
25248;DHT22;13191;47.472;11.214;2023-01-15T05:13:29;3.10;99.90
25248;DHT22;13191;47.472;11.214;2023-01-15T05:16:13;3.00;99.90
25248;DHT22;13191;47.472;11.214;2023-01-15T05:18:40;2.90;99.90
25248;DHT22;13191;47.472;11.214;2023-01-15T05:21:05;3.00;99.90
25248;DHT22;13191;47.472;11.214;2023-01-15T05:23:31;3.00;99.90
25248;DHT22;13191;47.472;11.214;2023-01-15T05:25:56;3.10;99.90
25248;DHT22;13191;47.472;11.214;2023-01-15T05:28:22;3.10;99.90
25248;DHT22;13191;47.472;11.214;2023-01-15T05:30:47;3.10;99.90
25248;DHT22;13191;47.472;11.214;2023-01-15T05:33:13;3.10;99.90
25248;DHT22;13191;47.472;11.214;2023-01-15T05:35:38;3.20;99.90
25248;DHT22;13191;47.472;11.214;2023-01-15T05:38:04;3.20;99.90
25248;DHT22;13191;47.472;11.214;2023-01-15T05:40:31;3.20;99.90
25248;DHT22;13191;47.472;11.214;2023-01-15T05:42:56;3.20;99.90
25248;DHT22;13191;47.472;11.214;2023-01-15T05:45:22;3.20;99.90
25248;DHT22;13191;47.472;11.214;2023-01-15T05:47:47;3.30;99.90
25248;DHT22;13191;47.472;11.214;2023-01-15T05:50:13;3.30;99.90
25248;DHT22;13191;47.472;11.214;2023-01-15T05:52:38;3.30;99.90
25248;DHT22;13191;47.472;11.214;2023-01-15T05:55:04;3.30;99.90
25248;DHT22;13191;47.472;11.214;2023-01-15T05:57:29;3.30;99.90
25248;DHT22;13191;47.472;11.214;2023-01-15T05:59:57;3.20;99.90
25248;DHT22;13191;47.472;11.214;2023-01-15T06:02:22;3.20;99.90
25248;DHT22;13191;47.472;11.214;2023-01-15T06:04:48;3.20;99.90
25248;DHT22;13191;47.472;11.214;2023-01-15T06:07:13;3.20;99.90
25248;DHT22;13191;47.472;11.214;2023-01-15T06:09:39;3.20;99.90
25248;DHT22;13191;47.472;11.214;2023-01-15T06:12:04;3.20;99.90
25248;DHT22;13191;47.472;11.214;2023-01-15T06:14:30;3.20;99.90
25248;DHT22;13191;47.472;11.214;2023-01-15T06:16:55;3.20;99.90
25248;DHT22;13191;47.472;11.214;2023-01-15T06:19:21;3.20;99.90
25248;DHT22;13191;47.472;11.214;2023-01-15T06:21:46;3.30;99.90
25248;DHT22;13191;47.472;11.214;2023-01-15T06:24:13;3.30;99.90
25248;DHT22;13191;47.472;11.214;2023-01-15T06:26:40;3.40;99.90
25248;DHT22;13191;47.472;11.214;2023-01-15T06:29:06;3.40;99.90
25248;DHT22;13191;47.472;11.214;2023-01-15T06:31:31;3.40;99.90
25248;DHT22;13191;47.472;11.214;2023-01-15T06:33:57;3.40;99.90
25248;DHT22;13191;47.472;11.214;2023-01-15T06:36:23;3.30;99.90
25248;DHT22;13191;47.472;11.214;2023-01-15T06:38:48;3.20;99.90
25248;DHT22;13191;47.472;11.214;2023-01-15T06:41:15;3.00;99.90
25248;DHT22;13191;47.472;11.214;2023-01-15T06:43:59;2.90;99.90
25248;DHT22;13191;47.472;11.214;2023-01-15T06:46:45;2.90;99.90
25248;DHT22;13191;47.472;11.214;2023-01-15T06:49:30;2.90;99.90
25248;DHT22;13191;47.472;11.214;2023-01-15T06:51:55;2.90;99.90
25248;DHT22;13191;47.472;11.214;2023-01-15T06:54:21;2.90;99.90
25248;DHT22;13191;47.472;11.214;2023-01-15T06:56:46;2.90;99.90
25248;DHT22;13191;47.472;11.214;2023-01-15T06:59:11;2.90;99.90
25248;DHT22;13191;47.472;11.214;2023-01-15T07:01:37;2.80;99.90
25248;DHT22;13191;47.472;11.214;2023-01-15T07:04:02;2.90;99.90
25248;DHT22;13191;47.472;11.214;2023-01-15T07:06:28;2.90;99.90
25248;DHT22;13191;47.472;11.214;2023-01-15T07:08:53;3.00;99.90
25248;DHT22;13191;47.472;11.214;2023-01-15T07:11:19;3.00;99.90
25248;DHT22;13191;47.472;11.214;2023-01-15T07:13:44;2.90;99.90
25248;DHT22;13191;47.472;11.214;2023-01-15T07:16:10;2.90;99.90
25248;DHT22;13191;47.472;11.214;2023-01-15T07:18:51;2.80;99.90
25248;DHT22;13191;47.472;11.214;2023-01-15T07:21:16;2.80;99.90
25248;DHT22;13191;47.472;11.214;2023-01-15T07:23:42;2.80;99.90
25248;DHT22;13191;47.472;11.214;2023-01-15T07:26:07;2.90;99.90
25248;DHT22;13191;47.472;11.214;2023-01-15T07:28:33;3.00;99.90
25248;DHT22;13191;47.472;11.214;2023-01-15T07:30:58;3.00;99.90
25248;DHT22;13191;47.472;11.214;2023-01-15T07:33:24;3.10;99.90
25248;DHT22;13191;47.472;11.214;2023-01-15T07:35:49;3.20;99.90
25248;DHT22;13191;47.472;11.214;2023-01-15T07:38:15;3.30;99.90
25248;DHT22;13191;47.472;11.214;2023-01-15T07:40:40;3.30;99.90
25248;DHT22;13191;47.472;11.214;2023-01-15T07:43:06;3.20;99.90
25248;DHT22;13191;47.472;11.214;2023-01-15T07:45:51;3.20;99.90
25248;DHT22;13191;47.472;11.214;2023-01-15T07:48:35;3.20;99.90
25248;DHT22;13191;47.472;11.214;2023-01-15T07:51:19;3.20;99.90
25248;DHT22;13191;47.472;11.214;2023-01-15T07:53:45;3.30;99.90
25248;DHT22;13191;47.472;11.214;2023-01-15T07:56:10;3.40;99.90
25248;DHT22;13191;47.472;11.214;2023-01-15T07:58:36;3.50;99.90
25248;DHT22;13191;47.472;11.214;2023-01-15T08:01:01;3.50;99.90
25248;DHT22;13191;47.472;11.214;2023-01-15T08:03:27;3.60;99.90
25248;DHT22;13191;47.472;11.214;2023-01-15T08:05:52;3.60;99.90
25248;DHT22;13191;47.472;11.214;2023-01-15T08:08:18;3.70;99.90
25248;DHT22;13191;47.472;11.214;2023-01-15T08:10:43;3.70;99.90
25248;DHT22;13191;47.472;11.214;2023-01-15T08:13:28;3.80;99.90
25248;DHT22;13191;47.472;11.214;2023-01-15T08:16:12;3.70;99.90
25248;DHT22;13191;47.472;11.214;2023-01-15T08:18:37;3.60;99.90
25248;DHT22;13191;47.472;11.214;2023-01-15T08:21:03;3.60;99.90
25248;DHT22;13191;47.472;11.214;2023-01-15T08:23:29;3.60;99.90
25248;DHT22;13191;47.472;11.214;2023-01-15T08:25:57;3.70;99.90
25248;DHT22;13191;47.472;11.214;2023-01-15T08:28:23;3.70;99.90
25248;DHT22;13191;47.472;11.214;2023-01-15T08:30:48;3.80;99.90
25248;DHT22;13191;47.472;11.214;2023-01-15T08:33:14;3.80;99.90
25248;DHT22;13191;47.472;11.214;2023-01-15T08:35:39;3.80;99.90
25248;DHT22;13191;47.472;11.214;2023-01-15T08:38:05;3.90;99.90
25248;DHT22;13191;47.472;11.214;2023-01-15T08:40:31;3.90;99.90
25248;DHT22;13191;47.472;11.214;2023-01-15T08:42:56;3.90;99.90
25248;DHT22;13191;47.472;11.214;2023-01-15T08:45:22;4.00;99.90
25248;DHT22;13191;47.472;11.214;2023-01-15T08:47:47;4.00;99.90
25248;DHT22;13191;47.472;11.214;2023-01-15T08:50:13;4.00;99.90
25248;DHT22;13191;47.472;11.214;2023-01-15T08:52:38;3.90;99.90
25248;DHT22;13191;47.472;11.214;2023-01-15T08:55:04;4.00;99.90
25248;DHT22;13191;47.472;11.214;2023-01-15T08:57:30;4.00;99.90
25248;DHT22;13191;47.472;11.214;2023-01-15T08:59:55;4.10;99.90
25248;DHT22;13191;47.472;11.214;2023-01-15T09:02:20;4.10;99.90
25248;DHT22;13191;47.472;11.214;2023-01-15T09:04:46;4.10;99.90
25248;DHT22;13191;47.472;11.214;2023-01-15T09:07:11;4.10;99.90
25248;DHT22;13191;47.472;11.214;2023-01-15T09:09:37;4.10;99.90
25248;DHT22;13191;47.472;11.214;2023-01-15T09:12:02;4.10;99.90
25248;DHT22;13191;47.472;11.214;2023-01-15T09:14:28;4.30;99.90
25248;DHT22;13191;47.472;11.214;2023-01-15T09:16:53;4.40;99.90
25248;DHT22;13191;47.472;11.214;2023-01-15T09:19:20;4.40;99.90
25248;DHT22;13191;47.472;11.214;2023-01-15T09:21:45;4.40;99.90
25248;DHT22;13191;47.472;11.214;2023-01-15T09:24:11;4.40;99.90
25248;DHT22;13191;47.472;11.214;2023-01-15T09:26:38;4.50;99.90
25248;DHT22;13191;47.472;11.214;2023-01-15T09:29:04;4.50;99.90
25248;DHT22;13191;47.472;11.214;2023-01-15T09:31:30;4.50;99.90
25248;DHT22;13191;47.472;11.214;2023-01-15T09:33:56;4.50;99.90
25248;DHT22;13191;47.472;11.214;2023-01-15T09:36:23;4.50;99.90
25248;DHT22;13191;47.472;11.214;2023-01-15T09:38:49;4.60;99.90
25248;DHT22;13191;47.472;11.214;2023-01-15T09:41:14;4.70;99.90
25248;DHT22;13191;47.472;11.214;2023-01-15T09:44:05;4.60;99.90
25248;DHT22;13191;47.472;11.214;2023-01-15T09:46:38;4.60;99.90
25248;DHT22;13191;47.472;11.214;2023-01-15T09:51:45;4.70;99.90
25248;DHT22;13191;47.472;11.214;2023-01-15T09:54:25;4.70;99.90
25248;DHT22;13191;47.472;11.214;2023-01-15T09:56:56;4.80;99.90
25248;DHT22;13191;47.472;11.214;2023-01-15T09:59:30;4.90;99.90
25248;DHT22;13191;47.472;11.214;2023-01-15T10:01:56;5.00;99.90
25248;DHT22;13191;47.472;11.214;2023-01-15T10:04:36;5.10;99.90
25248;DHT22;13191;47.472;11.214;2023-01-15T10:09:31;5.10;99.90
25248;DHT22;13191;47.472;11.214;2023-01-15T10:12:32;5.10;99.90
25248;DHT22;13191;47.472;11.214;2023-01-15T10:15:12;5.20;99.90
25248;DHT22;13191;47.472;11.214;2023-01-15T10:17:40;5.30;99.90
25248;DHT22;13191;47.472;11.214;2023-01-15T10:22:42;5.40;99.90
25248;DHT22;13191;47.472;11.214;2023-01-15T10:25:12;5.40;99.90
25248;DHT22;13191;47.472;11.214;2023-01-15T10:27:38;5.30;99.90
25248;DHT22;13191;47.472;11.214;2023-01-15T10:30:16;5.30;99.90
25248;DHT22;13191;47.472;11.214;2023-01-15T10:32:45;5.30;99.90
25248;DHT22;13191;47.472;11.214;2023-01-15T10:40:33;5.30;99.90
25248;DHT22;13191;47.472;11.214;2023-01-15T10:43:43;5.40;99.90
25248;DHT22;13191;47.472;11.214;2023-01-15T10:45:55;5.40;99.90
25248;DHT22;13191;47.472;11.214;2023-01-15T10:50:52;5.60;99.90
25248;DHT22;13191;47.472;11.214;2023-01-15T10:55:48;5.80;99.90
25248;DHT22;13191;47.472;11.214;2023-01-15T10:58:33;5.80;99.90
25248;DHT22;13191;47.472;11.214;2023-01-15T11:01:02;5.90;99.90
25248;DHT22;13191;47.472;11.214;2023-01-15T11:03:31;5.90;99.90
25248;DHT22;13191;47.472;11.214;2023-01-15T11:05:59;5.80;99.90
25248;DHT22;13191;47.472;11.214;2023-01-15T11:08:25;5.70;99.90
25248;DHT22;13191;47.472;11.214;2023-01-15T11:11:16;5.70;99.90
25248;DHT22;13191;47.472;11.214;2023-01-15T11:13:50;5.80;99.90
25248;DHT22;13191;47.472;11.214;2023-01-15T11:16:35;5.80;99.90
25248;DHT22;13191;47.472;11.214;2023-01-15T11:19:23;5.90;99.90
25248;DHT22;13191;47.472;11.214;2023-01-15T11:22:20;6.00;99.90
25248;DHT22;13191;47.472;11.214;2023-01-15T11:24:58;6.00;99.90
25248;DHT22;13191;47.472;11.214;2023-01-15T11:27:25;5.80;99.90
25248;DHT22;13191;47.472;11.214;2023-01-15T11:29:52;5.80;99.90
25248;DHT22;13191;47.472;11.214;2023-01-15T11:32:34;5.90;99.90
25248;DHT22;13191;47.472;11.214;2023-01-15T11:35:01;5.80;99.90
25248;DHT22;13191;47.472;11.214;2023-01-15T11:37:27;5.90;99.90
25248;DHT22;13191;47.472;11.214;2023-01-15T11:39:54;5.90;99.90
25248;DHT22;13191;47.472;11.214;2023-01-15T11:42:19;6.00;99.90
25248;DHT22;13191;47.472;11.214;2023-01-15T11:45:10;6.10;99.90
25248;DHT22;13191;47.472;11.214;2023-01-15T11:47:54;6.10;99.90
25248;DHT22;13191;47.472;11.214;2023-01-15T11:50:39;6.20;99.90
25248;DHT22;13191;47.472;11.214;2023-01-15T11:53:31;6.30;99.90
25248;DHT22;13191;47.472;11.214;2023-01-15T11:55:58;6.40;99.90
25248;DHT22;13191;47.472;11.214;2023-01-15T11:58:28;6.50;99.90
25248;DHT22;13191;47.472;11.214;2023-01-15T12:00:56;6.60;99.90
25248;DHT22;13191;47.472;11.214;2023-01-15T12:03:23;6.70;99.90
25248;DHT22;13191;47.472;11.214;2023-01-15T12:05:54;6.80;99.90
25248;DHT22;13191;47.472;11.214;2023-01-15T12:08:25;6.90;99.90
25248;DHT22;13191;47.472;11.214;2023-01-15T12:11:05;7.00;99.90
25248;DHT22;13191;47.472;11.214;2023-01-15T12:16:18;7.20;99.90
25248;DHT22;13191;47.472;11.214;2023-01-15T12:18:55;7.20;99.90
25248;DHT22;13191;47.472;11.214;2023-01-15T12:21:33;7.20;99.90
25248;DHT22;13191;47.472;11.214;2023-01-15T12:24:07;7.20;99.90
25248;DHT22;13191;47.472;11.214;2023-01-15T12:26:41;7.20;99.90
25248;DHT22;13191;47.472;11.214;2023-01-15T12:29:25;7.30;99.90
25248;DHT22;13191;47.472;11.214;2023-01-15T12:31:59;7.10;99.90
25248;DHT22;13191;47.472;11.214;2023-01-15T12:37:04;6.90;99.90
25248;DHT22;13191;47.472;11.214;2023-01-15T12:39:32;6.90;99.90
25248;DHT22;13191;47.472;11.214;2023-01-15T12:42:01;6.90;99.90
25248;DHT22;13191;47.472;11.214;2023-01-15T12:44:49;6.80;99.90
25248;DHT22;13191;47.472;11.214;2023-01-15T12:47:37;6.80;99.90
25248;DHT22;13191;47.472;11.214;2023-01-15T12:52:42;6.70;99.90
25248;DHT22;13191;47.472;11.214;2023-01-15T12:57:36;6.60;99.90
25248;DHT22;13191;47.472;11.214;2023-01-15T13:00:12;6.50;99.90
25248;DHT22;13191;47.472;11.214;2023-01-15T13:02:49;6.40;99.90
25248;DHT22;13191;47.472;11.214;2023-01-15T13:05:19;6.30;99.90
25248;DHT22;13191;47.472;11.214;2023-01-15T13:07:50;6.10;99.90
25248;DHT22;13191;47.472;11.214;2023-01-15T13:10:22;6.10;99.90
25248;DHT22;13191;47.472;11.214;2023-01-15T13:12:50;6.10;99.90
25248;DHT22;13191;47.472;11.214;2023-01-15T13:15:16;6.00;99.90
25248;DHT22;13191;47.472;11.214;2023-01-15T13:22:57;6.10;99.90
25248;DHT22;13191;47.472;11.214;2023-01-15T13:25:44;6.00;99.90
25248;DHT22;13191;47.472;11.214;2023-01-15T13:28:29;6.00;99.90
25248;DHT22;13191;47.472;11.214;2023-01-15T13:31:03;6.00;99.90
25248;DHT22;13191;47.472;11.214;2023-01-15T13:33:36;6.00;99.90
25248;DHT22;13191;47.472;11.214;2023-01-15T13:36:24;6.00;99.90
25248;DHT22;13191;47.472;11.214;2023-01-15T13:38:50;6.00;99.90
25248;DHT22;13191;47.472;11.214;2023-01-15T13:41:21;5.90;99.90
25248;DHT22;13191;47.472;11.214;2023-01-15T13:44:23;5.80;99.90
25248;DHT22;13191;47.472;11.214;2023-01-15T13:47:00;5.80;99.90
25248;DHT22;13191;47.472;11.214;2023-01-15T13:49:29;5.70;99.90
25248;DHT22;13191;47.472;11.214;2023-01-15T13:51:55;5.70;99.90
25248;DHT22;13191;47.472;11.214;2023-01-15T13:54:23;5.70;99.90
25248;DHT22;13191;47.472;11.214;2023-01-15T13:56:50;5.60;99.90
25248;DHT22;13191;47.472;11.214;2023-01-15T14:02:00;5.60;99.90
25248;DHT22;13191;47.472;11.214;2023-01-15T14:04:32;5.60;99.90
25248;DHT22;13191;47.472;11.214;2023-01-15T14:06:59;5.60;99.90
25248;DHT22;13191;47.472;11.214;2023-01-15T14:09:26;5.60;99.90
25248;DHT22;13191;47.472;11.214;2023-01-15T14:22:06;5.30;99.90
25248;DHT22;13191;47.472;11.214;2023-01-15T14:24:41;5.20;99.90
25248;DHT22;13191;47.472;11.214;2023-01-15T14:27:12;5.00;99.90
25248;DHT22;13191;47.472;11.214;2023-01-15T14:29:53;4.70;99.90
25248;DHT22;13191;47.472;11.214;2023-01-15T14:34:53;4.40;99.90
25248;DHT22;13191;47.472;11.214;2023-01-15T14:39:55;4.10;99.90
25248;DHT22;13191;47.472;11.214;2023-01-15T14:42:24;4.10;99.90
25248;DHT22;13191;47.472;11.214;2023-01-15T14:47:46;3.90;99.90
25248;DHT22;13191;47.472;11.214;2023-01-15T14:52:47;3.80;99.90
25248;DHT22;13191;47.472;11.214;2023-01-15T14:55:13;3.80;99.90
25248;DHT22;13191;47.472;11.214;2023-01-15T14:57:41;3.80;99.90
25248;DHT22;13191;47.472;11.214;2023-01-15T15:00:07;3.80;99.90
25248;DHT22;13191;47.472;11.214;2023-01-15T15:02:38;3.80;99.90
25248;DHT22;13191;47.472;11.214;2023-01-15T15:05:08;3.90;99.90
25248;DHT22;13191;47.472;11.214;2023-01-15T15:07:47;3.90;99.90
25248;DHT22;13191;47.472;11.214;2023-01-15T15:10:20;4.00;99.90
25248;DHT22;13191;47.472;11.214;2023-01-15T15:12:59;4.00;99.90
25248;DHT22;13191;47.472;11.214;2023-01-15T15:15:34;3.80;99.90
25248;DHT22;13191;47.472;11.214;2023-01-15T15:23:11;3.60;99.90
25248;DHT22;13191;47.472;11.214;2023-01-15T15:25:38;3.50;99.90
25248;DHT22;13191;47.472;11.214;2023-01-15T15:28:04;3.30;99.90
25248;DHT22;13191;47.472;11.214;2023-01-15T15:30:31;3.30;99.90
25248;DHT22;13191;47.472;11.214;2023-01-15T15:32:58;3.40;99.90
25248;DHT22;13191;47.472;11.214;2023-01-15T15:35:24;3.40;99.90
25248;DHT22;13191;47.472;11.214;2023-01-15T15:37:51;3.40;99.90
25248;DHT22;13191;47.472;11.214;2023-01-15T15:40:18;3.60;99.90
25248;DHT22;13191;47.472;11.214;2023-01-15T15:42:53;3.50;99.90
25248;DHT22;13191;47.472;11.214;2023-01-15T15:45:50;3.50;99.90
25248;DHT22;13191;47.472;11.214;2023-01-15T15:48:34;3.50;99.90
25248;DHT22;13191;47.472;11.214;2023-01-15T15:51:22;3.40;99.90
25248;DHT22;13191;47.472;11.214;2023-01-15T15:53:48;3.40;99.90
25248;DHT22;13191;47.472;11.214;2023-01-15T15:56:14;3.20;99.90
25248;DHT22;13191;47.472;11.214;2023-01-15T15:58:40;3.10;99.90
25248;DHT22;13191;47.472;11.214;2023-01-15T16:01:09;3.00;99.90
25248;DHT22;13191;47.472;11.214;2023-01-15T16:03:34;3.10;99.90
25248;DHT22;13191;47.472;11.214;2023-01-15T16:06:01;3.10;99.90
25248;DHT22;13191;47.472;11.214;2023-01-15T16:08:27;3.10;99.90
25248;DHT22;13191;47.472;11.214;2023-01-15T16:10:53;3.20;99.90
25248;DHT22;13191;47.472;11.214;2023-01-15T16:13:30;3.30;99.90
25248;DHT22;13191;47.472;11.214;2023-01-15T16:15:57;3.30;99.90
25248;DHT22;13191;47.472;11.214;2023-01-15T16:18:27;3.40;99.90
25248;DHT22;13191;47.472;11.214;2023-01-15T16:20:53;3.40;99.90
25248;DHT22;13191;47.472;11.214;2023-01-15T16:23:22;3.40;99.90
25248;DHT22;13191;47.472;11.214;2023-01-15T16:25:58;3.50;99.90
25248;DHT22;13191;47.472;11.214;2023-01-15T16:28:25;3.50;99.90
25248;DHT22;13191;47.472;11.214;2023-01-15T16:30:55;3.60;99.90
25248;DHT22;13191;47.472;11.214;2023-01-15T16:33:21;3.60;99.90
25248;DHT22;13191;47.472;11.214;2023-01-15T16:35:46;3.60;99.90
25248;DHT22;13191;47.472;11.214;2023-01-15T16:38:17;3.70;99.90
25248;DHT22;13191;47.472;11.214;2023-01-15T16:40:44;3.70;99.90
25248;DHT22;13191;47.472;11.214;2023-01-15T16:43:11;3.70;99.90
25248;DHT22;13191;47.472;11.214;2023-01-15T16:45:57;3.70;99.90
25248;DHT22;13191;47.472;11.214;2023-01-15T16:48:28;3.70;99.90
25248;DHT22;13191;47.472;11.214;2023-01-15T16:51:22;3.70;99.90
25248;DHT22;13191;47.472;11.214;2023-01-15T16:53:46;3.70;99.90
25248;DHT22;13191;47.472;11.214;2023-01-15T16:56:25;3.70;99.90
25248;DHT22;13191;47.472;11.214;2023-01-15T16:58:51;3.70;99.90
25248;DHT22;13191;47.472;11.214;2023-01-15T17:04:02;3.80;99.90
25248;DHT22;13191;47.472;11.214;2023-01-15T17:06:28;3.70;99.90
25248;DHT22;13191;47.472;11.214;2023-01-15T17:08:54;3.70;99.90
25248;DHT22;13191;47.472;11.214;2023-01-15T17:11:22;3.70;99.90
25248;DHT22;13191;47.472;11.214;2023-01-15T17:13:48;3.70;99.90
25248;DHT22;13191;47.472;11.214;2023-01-15T17:18:39;3.70;99.90